首页
METAR-TAF:

METAR-TAF

机场 :

贵阳龙洞堡国际机场

贵阳市, 中华人民共和国

纬度: 26-32-19N, 经度: 106-48-03E, 海拔: 1139米

当前天气观测

该预报发布于28分钟前的04:00 UTC
风速12节,风向
温度 7°C
湿度 81%
气压 1024 hPa
能见度10公里或以上
少量云层高于1300英尺
多云层高于1600英尺
阴天层高于3300英尺

METAR: ZUGY 180400Z 35006MPS 9999 FEW013 BKN016 OVC033 07/04 Q1024 NOSIG

时间: 12:28 (04:28 UTC)

预报

该预报发布于9小时和0分钟前的19:28 UTC
预报有效从18日的 00点(UTC)到 18日的 24点(UTC)
风速8节,风向
能見度: 6000
少量云层高于500英尺
多云层高于1500英尺
阴天层高于3300英尺

TAF: ZUGY 171928Z 1800/1824 36004MPS 6000 FEW005 BKN015 OVC033 TX09/1807Z TN06/1823Z

超过4000个机场的气象观测和天气预报(METAR&TAF报告)。

可查询的气象台以黄色和红色小点在地图上表示。

将鼠标移到小点上方,可查看气象台名称。

然后点击查看天气观测和预报。

如需切换地图:点击带黑十字的绿色按钮放大地图;点击带横线的绿色按钮缩小地图;或者点击绿色箭头查看邻近地区的地图。


METAR-TAF: